Stations météo

Publicité
Kahler Asten, Allemagne (10427): Température de l'air & dewpoint: 10.01.2018 20:00:00 - 16.01.2018 20:00:00 (CET)Kahler Asten, Allemagne (10427): Température de l'air 5cm & Température de l'air -5cm: 10.01.2018 20:00:00 - 16.01.2018 20:00:00 (CET)Kahler Asten, Allemagne (10427): Température de l'air -20cm & Température de l'air -100cm: 10.01.2018 20:00:00 - 16.01.2018 20:00:00 (CET)Kahler Asten, Allemagne (10427): Vitesse du vent & gusts: 10.01.2018 20:00:00 - 16.01.2018 20:00:00 (CET)Kahler Asten, Allemagne (10427): Direction du vent: 10.01.2018 20:00:00 - 16.01.2018 20:00:00 (CET)Kahler Asten, Allemagne (10427): visibility: 10.01.2018 20:00:00 - 16.01.2018 20:00:00 (CET)Kahler Asten, Allemagne (10427): Ensoleillement: 10.01.2018 20:00:00 - 16.01.2018 20:00:00 (CET)Kahler Asten, Allemagne (10427): Quantités de précipitations: 10.01.2018 20:00:00 - 16.01.2018 20:00:00 (CET)
Date & Time tt [°C] td [°C] tt 5cm [°C] tt -5cm [°C] tt -20cm [°C] tt -100cm [°C] ff [km/h] ff [knt] fx [km/h] fx [knt] dd vv [km] sd [min] rr [mm]
16.01.2018 20:00:00 -2,5 -3,1 -0,1 -0,2 0,4 2,9 32 17 59 32 W 0,4 0 0,6
16.01.2018 19:00:00 -2,4 -3,0 -0,1 -0,2 0,4 2,9 36 19 54 29 W 0,2 0 0,1
16.01.2018 18:00:00 -2,2 -2,8 -0,1 -0,2 0,4 2,9 41 22 69 38 W 3,8 0 0,0
16.01.2018 17:00:00 -2,1 -2,8 -0,1 -0,2 0,4 2,9 41 22 64 35 W 3,7 0 0,0
16.01.2018 16:00:00 -2,0 -2,5 -0,1 -0,2 0,4 2,9 37 20 64 35 W 0,9 0 0,5
16.01.2018 15:00:00 -2,1 -2,5 -0,1 -0,2 0,4 2,9 38 20 63 34 W 6 0 0,0
16.01.2018 14:00:00 -1,9 -2,2 -0,1 -0,2 0,4 2,9 34 18 73 39 W 2,8 0 0,8
16.01.2018 13:00:00 -1,5 -1,8 -0,1 -0,2 0,4 2,9 42 23 82 44 WNW 0,5 0 3,0
16.01.2018 12:00:00 0,0 -0,4 -0,1 -0,2 0,4 2,9 45 25 73 40 WSW 1,5 0 0,9
16.01.2018 11:00:00 -0,1 -0,5 -0,1 -0,2 0,4 2,9 36 20 66 35 WSW 1,5 0 1,8
16.01.2018 10:00:00 0,0 -0,3 -0,2 -0,2 0,4 2,9 35 19 59 32 WSW 0,5 0 1,3
16.01.2018 09:00:00 -0,1 -0,4 -0,2 -0,2 0,4 2,9 32 17 56 31 WSW 0,2 0 0,5
16.01.2018 08:00:00 -0,1 -0,4 -0,2 -0,2 0,4 2,9 36 19 66 36 WSW 0,2 0 0,1
16.01.2018 07:00:00 0,0 -0,4 -0,2 -0,2 0,4 2,9 35 19 59 32 WSW 0,3 0 0,6
16.01.2018 06:00:00 0,0 -0,3 -0,2 -0,3 0,4 2,9 38 21 67 36 WSW 0,3 0 0,7
16.01.2018 05:00:00 0,1 -0,1 -0,2 -0,3 0,4 2,9 35 19 61 33 WSW 0,1 0 0,0
16.01.2018 04:00:00 0,0 -0,3 -0,3 -0,3 0,4 2,9 43 23 64 34 W 0,3 0 1,6
16.01.2018 03:00:00 0,3 0,0 -0,3 -0,3 0,4 2,9 42 23 65 35 WSW 1,2 0 1,0
16.01.2018 02:00:00 0,1 0,1 -0,4 -0,3 0,4 2,9 32 17 48 26 SW 0,1 0 0,2
16.01.2018 01:00:00 0,0 -0,2 -0,5 -0,3 0,4 3,0 29 16 54 29 SW 0,2 0 0,6
16.01.2018 00:00:00 -0,4 -0,8 -0,6 -0,3 0,4 3,0 32 18 54 29 SW 0,2 0 0,9
15.01.2018 23:00:00 -0,6 -1,0 -0,6 -0,3 0,4 3,0 37 20 58 31 SSW 0,1 0 0,6
15.01.2018 22:00:00 -0,6 -0,9 -0,6 -0,4 0,4 3,0 36 19 61 33 SSW 0,1 0 1,1
15.01.2018 21:00:00 -0,6 -0,9 -0,6 -0,4 0,4 3,0 42 23 69 38 SSW 0,1 0 1,8
15.01.2018 20:00:00 -0,6 -1,0 -0,6 -0,4 0,4 3,0 45 24 73 39 S 0,1 0 2,1
15.01.2018 19:00:00 -0,6 -1,0 -0,7 -0,4 0,4 3,0 47 26 71 39 S 0,1 0 0,8
15.01.2018 18:00:00 -0,7 -1,1 -0,8 -0,5 0,4 3,0 46 25 72 39 S 0,1 0 1,0
15.01.2018 17:00:00 -1,1 -1,5 -1,2 -0,5 0,4 3,0 43 23 67 36 S 0,1 0 1,1
15.01.2018 16:00:00 -1,5 -1,9 -1,5 -0,5 0,4 3,0 43 23 61 33 S 0,1 0 0,1
15.01.2018 15:00:00 -1,5 -1,9 -1,4 -0,5 0,4 3,0 35 19 60 33 S 0,1 0 0,1
15.01.2018 14:00:00 -1,5 -1,9 -1,5 -0,5 0,4 3,0 34 19 50 27 S 0,1 0 0,0
15.01.2018 13:00:00 -1,9 -2,3 -1,7 -0,5 0,4 3,0 35 19 53 28 S 0,1 0 0,0
15.01.2018 12:00:00 -1,8 -2,3 -1,6 -0,6 0,4 3,0 40 22 55 30 S 0,1 0 0,0
15.01.2018 11:00:00 -2,1 -2,5 -1,8 -0,7 0,4 3,0 36 19 50 27 S 0,1 0 0,0
15.01.2018 10:00:00 -2,3 -2,8 -2,2 -0,8 0,5 3,0 41 22 53 28 S 0,1 0 0,0
15.01.2018 09:00:00 -2,8 -3,4 -2,6 -0,9 0,5 3,0 37 20 48 26 S 0,1 0 0,0
15.01.2018 08:00:00 -2,8 -3,3 -2,7 -1,0 0,5 3,0 37 20 48 26 S 0,3 0 0,0
15.01.2018 07:00:00 -3,4 -4,1 -3,2 -1,0 0,5 3,0 33 18 46 25 S 0,5 0 0,0
15.01.2018 06:00:00 -3,5 -4,1 -3,4 -1,1 0,5 3,0 37 20 48 26 S 0,9 0 0,0
15.01.2018 05:00:00 -3,8 -4,5 -3,7 -1,1 0,5 3,0 37 20 50 27 S 1,5 0 0,0
15.01.2018 04:00:00 -4,0 -4,8 -3,8 -1,0 0,5 3,0 34 19 44 24 S 3,0 0 0,0
15.01.2018 03:00:00 -4,3 -5,1 -4,5 -1,1 0,6 3,0 35 19 45 25 S 2,2 0 0,0
15.01.2018 02:00:00 -4,3 -5,1 -4,5 -0,9 0,6 3,0 32 17 48 26 S 4,4 0 0,0
15.01.2018 01:00:00 -4,1 -4,9 -4,0 -0,8 0,6 3,0 31 17 52 28 S 4,1 0 0,0
15.01.2018 00:00:00 -3,9 -5,1 -3,9 -0,8 0,6 3,0 35 19 48 26 S 11 0 0,0
14.01.2018 23:00:00 -3,7 -5,2 -3,8 -0,7 0,6 3,0 29 16 46 25 S 14 0 0,0
14.01.2018 22:00:00 -3,5 -5,1 -3,8 -0,7 0,7 3,0 30 16 46 25 S 16 0 0,0
14.01.2018 21:00:00 -3,6 -5,6 -4,6 -0,6 0,7 3,0 33 18 48 26 SSE 21 0 0,0
14.01.2018 20:00:00 -3,7 -5,6 -4,8 -0,4 0,7 3,0 33 18 44 24 SSE 18 0 0,0
14.01.2018 19:00:00 -3,6 -5,6 -4,8 -0,2 0,7 3,0 31 17 48 26 SSE 20 0 0,0
14.01.2018 18:00:00 -3,5 -5,7 -4,4 0,0 0,7 3,0 31 17 47 25 SSE 23 0 0,0
14.01.2018 17:00:00 -3,2 -5,8 -4,3 0,0 0,7 3,0 29 16 45 24 SSE 28 7 0,0
14.01.2018 16:00:00 -2,6 -5,5 -3,5 0,0 0,8 3,0 31 17 45 24 SSE 30 60 0,0
14.01.2018 15:00:00 -2,6 -5,4 -2,0 -0,1 0,8 3,0 32 17 47 25 SSE 30 60 0,0
14.01.2018 14:00:00 -2,9 -5,3 -2,0 -0,1 0,8 3,0 34 18 55 30 SSE 23 60 0,0
14.01.2018 13:00:00 -3,6 -5,3 -2,8 -0,1 0,8 3,0 38 21 57 31 SSE 23 57 0,0
14.01.2018 12:00:00 -4,6 -6,0 -4,2 -0,1 0,8 3,0 41 22 57 31 SSE 14 10 0,0
14.01.2018 11:00:00 -5,0 -6,1 -4,2 -0,1 0,9 3,0 37 20 53 29 SE 9 0 0,0
14.01.2018 10:00:00 -4,7 -5,7 -4,2 -0,1 0,9 3,0 33 18 47 25 SE 6 0 0,0
14.01.2018 09:00:00 -4,6 -5,5 -4,0 0,0 0,9 3,0 29 16 44 24 SE 4,2 0 0,0
14.01.2018 08:00:00 -4,6 -5,4 -4,1 0,0 0,9 3,0 29 16 49 26 SE 3,6 0 0,0
14.01.2018 07:00:00 -4,5 -5,4 -4,1 0,0 0,9 3,0 28 15 45 24 SE 2,8 0 0,0
14.01.2018 06:00:00 -4,5 -5,3 -4,0 0,1 1,0 3,0 32 17 44 24 SE 0,6 0 0,0
14.01.2018 05:00:00 -3,8 -4,4 -3,3 0,1 1,0 3,0 27 15 52 28 SE 0,1 0 0,0
14.01.2018 04:00:00 -3,5 -4,1 -3,1 0,1 1,0 3,0 36 19 47 26 SE 0,1 0 0,0
14.01.2018 03:00:00 -3,3 -3,9 -2,8 0,1 1,1 3,0 34 18 45 25 SE 0,1 0 0,0
14.01.2018 02:00:00 -3,0 -3,5 -2,6 0,2 1,1 3,0 30 16 46 25 SE 0,1 0 0,0
14.01.2018 01:00:00 -2,9 -3,3 -2,6 0,2 1,1 3,0 29 15 42 23 ESE 0,1 0 0,0
14.01.2018 00:00:00 -2,6 -3,0 -2,4 0,2 1,2 2,9 32 17 45 24 ESE 0,1 0 0,0
13.01.2018 23:00:00 -2,3 -2,7 -2,0 0,2 1,2 2,9 29 16 44 24 ESE 0,1 0 0,0
13.01.2018 22:00:00 -2,3 -2,7 -2,1 0,3 1,2 2,9 32 17 48 26 ESE 0,1 0 0,0
13.01.2018 21:00:00 -2,2 -2,6 -2,0 0,3 1,3 2,9 29 16 49 26 ESE 0,1 0 0,0
13.01.2018 20:00:00 -2,0 -2,5 -1,9 0,3 1,3 2,9 31 17 45 24 ESE 0,1 0 0,0
13.01.2018 19:00:00 -1,7 -2,6 -1,7 0,4 1,4 2,9 30 16 47 25 ESE 6 0 0,0
13.01.2018 18:00:00 -1,4 -2,5 -1,5 0,4 1,5 2,9 29 15 44 24 ESE 7 0 0,0
13.01.2018 17:00:00 -1,2 -2,5 -1,3 0,6 1,5 2,9 22 12 36 19 ESE 8 0 0,0
13.01.2018 16:00:00 -1,1 -2,8 -1,1 1,0 1,5 2,9 22 12 37 20 ESE 15 0 0,0
13.01.2018 15:00:00 -0,9 -2,3 -0,7 1,3 1,5 2,9 23 13 34 19 SE 14 0 0,0
13.01.2018 14:00:00 -0,7 -1,7 -0,4 1,3 1,5 2,9 22 12 33 18 ESE 10 0 0,0
13.01.2018 13:00:00 -0,5 -1,2 -0,1 1,3 1,5 2,9 22 12 35 19 SE 4,0 0 0,0
13.01.2018 12:00:00 -0,3 -0,9 0,0 1,1 1,5 2,9 21 12 39 21 SE 4,6 0 0,0
13.01.2018 11:00:00 -0,5 -1,2 -0,2 0,9 1,5 2,9 24 13 36 20 SE 4,8 0 0,0
13.01.2018 10:00:00 -0,6 -1,0 -0,4 0,7 1,6 2,9 23 12 37 20 SE 0,5 0 0,0
13.01.2018 09:00:00 -0,6 -1,0 -0,4 0,7 1,6 2,9 27 14 37 20 SE 0,1 0 0,0
13.01.2018 08:00:00 -0,3 -0,6 -0,3 0,9 1,7 2,9 21 11 36 20 SE 0,1 0 0,0
13.01.2018 07:00:00 -0,1 -0,4 -0,1 1,0 1,7 2,9 24 13 37 20 SE 0,1 0 0,0
13.01.2018 06:00:00 0,0 -0,3 0,0 1,2 1,7 2,9 20 11 30 16 SE 0,1 0 0,0
13.01.2018 05:00:00 0,4 0,1 0,5 1,3 1,8 2,9 21 11 29 16 SE 0,1 0 0,0
13.01.2018 04:00:00 0,6 0,3 0,6 1,3 1,8 2,9 19 10 27 14 SE 0,1 0 0,0
13.01.2018 03:00:00 0,6 0,3 0,6 1,4 1,8 2,9 18 10 24 13 SE 0,1 0 0,0
13.01.2018 02:00:00 0,7 0,5 0,7 1,4 1,9 2,9 11 6 23 12 SE - 0 0,0
13.01.2018 01:00:00 0,7 0,4 0,7 1,4 1,9 2,9 14 8 20 11 SE 0,1 0 0,0
13.01.2018 00:00:00 0,7 0,4 0,8 1,5 1,9 2,9 13 7 21 11 SE 0,1 0 0,0
12.01.2018 23:00:00 0,8 0,5 0,8 1,5 1,9 2,8 16 9 23 12 SE 0,1 0 0,0
12.01.2018 22:00:00 0,9 0,5 0,9 1,6 2,0 2,8 16 8 22 12 ESE 0,1 0 0,0
12.01.2018 21:00:00 1,0 0,6 1,0 1,7 2,0 2,8 16 8 21 11 ESE 0,1 0 0,0
12.01.2018 20:00:00 1,0 0,7 1,0 1,7 2,1 2,8 12 6 17 9 ESE 0,1 0 0,0
12.01.2018 19:00:00 0,9 0,6 0,9 1,8 2,1 2,8 13 7 17 9 ESE 0,1 0 0,0
12.01.2018 18:00:00 0,9 0,6 1,0 2,0 2,1 2,8 11 6 16 9 ESE 0,1 0 0,0
12.01.2018 17:00:00 1,0 0,6 1,0 2,3 2,1 2,8 12 6 17 9 ESE 0,1 0 0,0
12.01.2018 16:00:00 1,1 0,7 1,4 2,6 2,0 2,8 11 6 15 8 ESE 0,6 0 0,0
12.01.2018 15:00:00 1,6 1,0 1,9 2,8 1,9 2,8 8 4 11 6 ESE 3,1 0 0,0
12.01.2018 14:00:00 1,6 1,2 1,9 2,8 1,8 2,8 8 4 11 6 E 1,2 0 0,0
12.01.2018 13:00:00 1,9 1,5 2,1 2,9 1,7 2,8 6 3 9 5 ESE 5 0 0,0
12.01.2018 12:00:00 1,8 1,2 2,4 2,5 1,6 2,8 2 1 9 5 ESE 18 0 0,0
12.01.2018 11:00:00 1,5 0,8 2,0 1,7 1,6 2,8 5 3 10 6 E 27 0 0,0
12.01.2018 10:00:00 1,1 0,5 1,0 1,1 1,6 2,8 9 5 14 7 E 20 0 0,0
12.01.2018 09:00:00 0,8 0,3 0,4 0,9 1,7 2,8 12 7 15 8 E 1,7 0 0,0
12.01.2018 08:00:00 0,8 0,4 0,2 1,1 1,7 2,8 11 6 15 8 N 0,4 0 0,0
12.01.2018 07:00:00 0,9 0,5 0,5 1,3 1,8 2,8 9 5 16 8 N 0,1 0 0,0
12.01.2018 06:00:00 1,1 0,7 1,0 1,5 1,8 2,8 13 7 16 9 NNW 0,1 0 0,0
12.01.2018 05:00:00 1,2 0,8 1,1 1,6 1,8 2,8 11 6 16 9 NNW 0,1 0 0,0
12.01.2018 04:00:00 1,3 1,0 1,2 1,6 1,8 2,8 12 7 15 8 NNW 0,1 0 0,0
12.01.2018 03:00:00 1,5 1,1 1,5 1,7 1,8 2,8 12 6 16 9 NNW 0,1 0 0,0
12.01.2018 02:00:00 1,6 1,3 1,5 1,7 1,8 2,8 11 6 19 10 N 0,1 0 0,0
12.01.2018 01:00:00 1,6 1,2 1,5 1,7 1,8 2,8 11 6 16 9 NNW 0,1 0 0,0
12.01.2018 00:00:00 1,6 1,3 1,5 1,7 1,8 2,8 13 7 19 10 NNW 0,1 0 0,0
11.01.2018 23:00:00 1,6 1,3 1,5 1,7 1,8 2,8 14 7 21 11 NNW 0,1 0 0,0
11.01.2018 22:00:00 1,6 1,3 1,5 1,7 1,9 2,8 16 8 19 11 NNW 0,1 0 0,0
11.01.2018 21:00:00 1,5 1,1 1,4 1,6 1,9 2,8 14 8 18 10 NNW 0,1 0 0,0
11.01.2018 20:00:00 1,4 1,0 1,0 1,7 1,9 2,7 16 9 19 10 N 0,6 0 0,0
11.01.2018 19:00:00 1,6 1,2 1,5 1,9 2,0 2,7 16 9 22 12 N 0,1 0 0,0
11.01.2018 18:00:00 1,7 1,4 1,7 2,1 2,0 2,7 16 8 20 11 N 0,2 0 0,1
11.01.2018 17:00:00 1,6 1,0 1,4 2,4 1,9 2,7 10 5 16 9 NNW 7 0 0,0
11.01.2018 16:00:00 1,9 0,5 1,8 2,8 1,8 2,7 10 5 14 7 NW 65 0 0,0
11.01.2018 15:00:00 2,0 0,9 2,3 2,9 1,7 2,7 9 5 12 7 NW 42 0 0,0
11.01.2018 14:00:00 2,1 1,2 2,9 2,6 1,6 2,7 7 4 11 6 W 26 0 0,0
11.01.2018 13:00:00 1,8 1,0 2,0 2,3 1,5 2,7 7 4 11 6 WSW 70 0 0,0
11.01.2018 12:00:00 1,6 1,1 1,8 2,0 1,5 2,7 6 4 11 6 W 70 0 0,0
11.01.2018 11:00:00 1,5 1,1 1,6 1,7 1,5 2,7 4 2 8 5 WSW 70 0 0,0
11.01.2018 10:00:00 1,5 1,0 1,3 1,4 1,5 2,7 0 0 7 4 N 56 0 0,0
11.01.2018 09:00:00 1,3 1,0 1,2 1,4 1,5 2,7 7 4 10 5 SW 0,1 0 0,0
11.01.2018 08:00:00 1,5 1,4 1,3 1,4 1,5 2,7 6 3 11 6 SSE 0,1 0 0,0
11.01.2018 07:00:00 1,5 1,2 1,4 1,5 1,5 2,7 7 4 9 5 SSE 0,1 0 0,0
11.01.2018 06:00:00 1,5 1,2 1,4 1,5 1,5 2,7 5 3 10 5 SE 0,1 0 0,0
11.01.2018 05:00:00 1,6 1,3 1,3 1,5 1,5 2,7 4 2 13 7 SSE 0,2 0 0,0
11.01.2018 04:00:00 1,7 1,4 1,5 1,5 1,5 2,7 8 4 16 9 S 0,1 0 0,0
11.01.2018 03:00:00 1,7 1,4 1,7 1,6 1,4 2,7 9 5 15 8 S 0,1 0 0,0
11.01.2018 02:00:00 1,8 1,5 1,6 1,6 1,4 2,7 11 6 27 15 S 0,1 0 0,0
11.01.2018 01:00:00 2,0 1,7 1,8 1,6 1,4 2,7 14 7 23 12 S 0,1 0 0,0
11.01.2018 00:00:00 2,1 1,9 1,9 1,6 1,4 2,7 16 8 32 17 S 0,1 0 0,0
10.01.2018 23:00:00 2,1 1,8 1,9 1,5 1,4 2,7 22 12 31 17 S 0,1 0 0,0
10.01.2018 22:00:00 2,0 1,7 1,8 1,4 1,4 2,7 23 12 29 16 S 1,8 0 0,0
10.01.2018 21:00:00 1,8 1,6 1,5 1,4 1,4 2,7 16 9 23 12 SSE 0,1 0 0,0
10.01.2018 20:00:00 1,8 1,5 1,0 1,7 1,4 2,7 15 8 22 12 SSE 0,4 0 0,0

tt = Température de l'air
td = dewpoint
tt 5cm = Température de l'air 5cm
tt -5cm = Température de l'air -5cm
tt -20cm = Température de l'air -20cm
tt -100cm = Température de l'air -100cm
ff = Vitesse du vent
fx = gusts
dd = Direction du vent
vv = visibility
sd = Ensoleillement
rr = Quantités de précipitations

stations d'obs. à proximité